Terminal Aerodrome Forecast
Issued by NWS Sterling, VA

Current Version | Previous Version | Graphics & Text | Print | Product List | Glossary Off
Versions: 1 2 3 4 5 6 7 8 9 10 11 12 13 14 15 16 17 18 19 20 21 22 23 24 25 26 27 28 29

000
FTUS41 KLWX 040538
TAFDCA
TAF
KDCA 040538Z 0406/0506 20010KT P6SM SCT025 BKN070
     FM040900 22010KT P6SM OVC025
     FM041100 24005KT 3SM -SHRA BR OVC025
     FM041700 VRB03KT 2SM -RA BR OVC015
     FM050000 02008KT 2SM -RA BR OVC008=

USA.gov is the U.S. government's official web portal to all federal, state and local government web resources and services.